Time;durP1;ratioP1;P1;durP2;ratioP2;P2;SDS_P1;SDS_P2;PMS_P1;PMS_P2;Temp;Humidity;BMP_temperature;BMP_pressure;BME280_temperature;BME280_humidity;BME280_pressure;Samples;Min_cycle;Max_cycle;Signal;HPM_P1;HPM_P2
2023/04/25 00:00:52;95402.00;0.32;165.63;0.00;0.00;0.62;;;;;13.00;1.00;;;;;;2268256;61;1542;-88
2023/04/25 00:03:19;138022.00;0.46;239.16;0.00;0.00;0.62;;;;;13.10;1.00;;;;;;2268266;61;1414;-87
2023/04/25 00:05:46;89865.00;0.30;156.07;0.00;0.00;0.62;;;;;13.10;1.00;;;;;;2268197;61;1024;-87
2023/04/25 00:08:13;160808.00;0.54;278.43;0.00;0.00;0.62;;;;;13.10;1.00;;;;;;2268273;61;931;-89
2023/04/25 00:10:41;85881.00;0.29;149.19;0.00;0.00;0.62;;;;;13.20;1.00;;;;;;2268249;61;948;-89
2023/04/25 00:13:08;86601.00;0.29;150.44;0.00;0.00;0.62;;;;;13.10;1.00;;;;;;2268280;61;1287;-90
2023/04/25 00:15:35;229518.00;0.77;396.72;0.00;0.00;0.62;;;;;12.80;1.00;;;;;;2268219;61;2304;-89
2023/04/25 00:18:02;188612.00;0.63;326.32;0.00;0.00;0.62;;;;;12.70;1.00;;;;;;2275079;55;3742;-88
2023/04/25 00:20:30;192137.00;0.64;332.39;0.00;0.00;0.62;;;;;12.60;1.00;;;;;;2276244;61;2087;-89
2023/04/25 00:22:57;94383.00;0.31;163.88;0.00;0.00;0.62;;;;;12.80;1.00;;;;;;2276258;61;1368;-88
2023/04/25 00:25:24;94346.00;0.31;163.81;0.00;0.00;0.62;;;;;12.90;1.00;;;;;;2276307;61;1102;-90
2023/04/25 00:27:52;357741.00;1.19;617.17;0.00;0.00;0.62;;;;;13.00;1.00;;;;;;2276304;61;1294;-90
2023/04/25 00:32:49;252481.00;0.84;436.22;0.00;0.00;0.62;;;;;13.30;1.00;;;;;;2265893;61;1290;-89
2023/04/25 00:35:16;112582.00;0.38;195.29;0.00;0.00;0.62;;;;;13.40;1.00;;;;;;2264075;61;1037;-88
2023/04/25 00:37:43;48360.00;0.16;84.35;0.00;0.00;0.62;;;;;13.40;1.00;;;;;;2264150;61;1023;-88
2023/04/25 00:40:11;302158.00;1.01;521.63;62461.00;0.21;108.73;;;;;13.50;1.00;;;;;;2264110;61;1926;-87
2023/04/25 00:42:38;211739.00;0.71;366.13;0.00;0.00;0.62;;;;;13.20;1.00;;;;;;2264038;61;1403;-88
2023/04/25 00:45:11;295774.00;0.99;510.66;9487.00;0.03;17.06;;;;;13.20;1.00;;;;;;2264143;61;1569;-89
2023/04/25 00:47:38;234035.00;0.78;404.49;33471.00;0.11;58.59;;;;;13.10;1.00;;;;;;2264044;61;1016;-88
2023/04/25 00:50:06;189809.00;0.63;328.38;0.00;0.00;0.62;;;;;13.20;1.00;;;;;;2263941;61;1139;-90
2023/04/25 00:52:33;66888.00;0.22;116.38;0.00;0.00;0.62;;;;;13.20;1.00;;;;;;2264068;61;1304;-87
2023/04/25 00:55:00;229574.00;0.77;396.82;0.00;0.00;0.62;;;;;13.30;1.00;;;;;;2264027;61;948;-88
2023/04/25 00:57:28;136652.00;0.46;236.80;0.00;0.00;0.62;;;;;13.40;1.00;;;;;;2264072;61;1751;-88
2023/04/25 00:59:55;420176.00;1.40;724.49;99380.00;0.33;172.50;;;;;13.40;1.00;;;;;;2264050;61;1920;-88
2023/04/25 01:02:25;50324.00;0.17;87.75;0.00;0.00;0.62;;;;;13.50;1.00;;;;;;2263921;61;1283;-88
2023/04/25 01:04:52;160398.00;0.53;277.73;0.00;0.00;0.62;;;;;13.70;1.00;;;;;;2263992;61;1151;-89
2023/04/25 01:07:19;823077.00;2.74;1421.40;146932.00;0.49;254.52;;;;;13.60;1.00;;;;;;2263946;61;1210;-88
2023/04/25 01:09:47;371002.00;1.24;639.96;50279.00;0.17;87.67;;;;;13.40;1.00;;;;;;2264024;61;1623;-87
2023/04/25 01:12:14;172353.00;0.57;298.32;0.00;0.00;0.62;;;;;13.40;1.00;;;;;;2263929;61;1543;-89
2023/04/25 01:14:41;246244.00;0.82;425.49;0.00;0.00;0.62;;;;;13.40;1.00;;;;;;2264080;61;1066;-88
2023/04/25 01:17:09;135675.00;0.45;235.11;0.00;0.00;0.62;;;;;13.60;1.00;;;;;;2264053;61;989;-89
2023/04/25 01:22:10;421455.00;1.40;726.69;27290.00;0.09;47.89;;;;;13.60;1.00;;;;;;2265079;61;1344;-90
2023/04/25 01:24:37;127250.00;0.42;220.59;0.00;0.00;0.62;;;;;13.50;1.00;;;;;;2263752;61;1180;-89
2023/04/25 01:27:05;140491.00;0.47;243.42;0.00;0.00;0.62;;;;;13.30;1.00;;;;;;2263736;61;939;-88
2023/04/25 01:29:32;381900.00;1.27;658.69;69246.00;0.23;120.46;;;;;13.30;1.00;;;;;;2263758;61;1753;-89
2023/04/25 01:32:00;173052.00;0.58;299.52;0.00;0.00;0.62;;;;;13.30;1.00;;;;;;2263643;61;1384;-89
2023/04/25 01:34:27;75741.00;0.25;131.68;0.00;0.00;0.62;;;;;13.40;1.00;;;;;;2263643;61;1599;-88
2023/04/25 01:36:54;243786.00;0.81;421.26;0.00;0.00;0.62;;;;;13.40;1.00;;;;;;2263718;61;1099;-85
2023/04/25 01:39:23;154205.00;0.51;267.05;0.00;0.00;0.62;;;;;13.40;1.00;;;;;;2263716;61;1911;-87
2023/04/25 01:41:50;345467.00;1.15;596.07;47176.00;0.16;82.30;;;;;13.30;1.00;;;;;;2263531;61;1143;-87
2023/04/25 01:44:17;781955.00;2.61;1349.67;128097.00;0.43;222.05;;;;;12.90;1.00;;;;;;2263565;61;1338;-89
2023/04/25 01:46:45;205908.00;0.69;356.09;0.00;0.00;0.62;;;;;13.00;1.00;;;;;;2263731;61;887;-88
2023/04/25 01:49:12;129018.00;0.43;223.64;0.00;0.00;0.62;;;;;13.00;1.00;;;;;;2263690;61;1182;-89
2023/04/25 01:51:39;162536.00;0.54;281.41;21052.00;0.07;37.09;;;;;13.00;1.00;;;;;;2263762;61;1020;-89
2023/04/25 01:54:07;173822.00;0.58;300.85;0.00;0.00;0.62;;;;;12.90;1.00;;;;;;2263637;61;1711;-90
2023/04/25 01:56:38;74045.00;0.25;128.75;0.00;0.00;0.62;;;;;12.90;1.00;;;;;;2263667;61;1055;-88
2023/04/25 01:59:06;165932.00;0.55;287.26;0.00;0.00;0.62;;;;;13.20;1.00;;;;;;2263674;61;1999;-89
2023/04/25 02:01:33;57844.00;0.19;100.75;0.00;0.00;0.62;;;;;13.10;1.00;;;;;;2264491;61;1039;-87
2023/04/25 02:03:59;269703.00;0.90;465.83;0.00;0.00;0.62;;;;;13.20;1.00;;;;;;2264338;61;1295;-88
2023/04/25 02:06:26;169054.00;0.56;292.64;0.00;0.00;0.62;;;;;13.10;1.00;;;;;;2264447;61;1143;-90
2023/04/25 02:08:53;144503.00;0.48;250.33;0.00;0.00;0.62;;;;;13.10;1.00;;;;;;2264430;61;1045;-88
2023/04/25 02:11:20;163244.00;0.54;282.63;0.00;0.00;0.62;;;;;13.00;1.00;;;;;;2264347;61;1047;-87
2023/04/25 02:13:48;101205.00;0.34;175.65;0.00;0.00;0.62;;;;;13.10;1.00;;;;;;2264360;61;1264;-87
2023/04/25 02:21:58;823946.00;2.75;1422.92;120429.00;0.40;208.82;;;;;13.00;1.00;;;;;;2266755;61;972;-91
2023/04/25 02:41:56;762603.00;2.54;1315.98;93398.00;0.31;162.17;;;;;12.70;1.00;;;;;;2266769;61;993;-89
2023/04/25 02:44:23;502106.00;1.67;865.45;105258.00;0.35;182.65;;;;;12.60;1.00;;;;;;2261053;61;467;-91
2023/04/25 02:46:50;376699.00;1.26;649.75;89426.00;0.30;155.32;;;;;12.50;1.00;;;;;;2261049;61;1661;-92
2023/04/25 02:49:17;256972.00;0.86;443.94;101235.00;0.34;175.70;;;;;12.40;1.00;;;;;;2261148;61;1252;-91
2023/04/25 02:51:44;368597.00;1.23;635.83;102063.00;0.34;177.13;;;;;12.50;1.00;;;;;;2261064;61;1618;-89
2023/04/25 02:54:11;403769.00;1.35;696.28;84738.00;0.28;147.22;;;;;12.40;1.00;;;;;;2261030;61;1326;-91
2023/04/25 02:59:09;726571.00;2.42;1253.35;94049.00;0.31;163.30;;;;;12.20;1.00;;;;;;2266901;61;1957;-90
2023/04/25 04:26:44;701337.00;2.34;1209.56;0.00;0.00;0.62;;;;;12.10;1.00;;;;;;2266673;61;1080;-92
2023/04/25 04:29:11;331108.00;1.10;571.39;79303.00;0.26;137.83;;;;;12.00;1.00;;;;;;2264607;61;1844;-91
2023/04/25 06:21:51;417634.00;1.39;720.12;0.00;0.00;0.62;;;;;15.30;1.00;;;;;;2266074;61;944;-92
2023/04/25 07:02:52;1268983.00;4.23;2215.45;106564.00;0.36;184.90;;;;;14.70;1.00;;;;;;2454044;55;3606;-88
2023/04/25 08:48:17;729042.00;2.43;1257.64;100499.00;0.33;174.43;;;;;12.20;1.00;;;;;;2265764;61;1397;-89
2023/04/25 10:48:32;570255.00;1.90;982.89;0.00;0.00;0.62;;;;;13.40;1.00;;;;;;2266738;61;1032;-88
2023/04/25 11:39:01;633878.00;2.11;1092.75;0.00;0.00;0.62;;;;;11.40;1.00;;;;;;2507648;40;3577;31
2023/04/25 13:16:08;948303.00;3.16;1641.12;0.00;0.00;0.62;;;;;14.20;1.00;;;;;;2509121;40;3502;31
2023/04/25 14:09:10;742546.00;2.48;1281.10;0.00;0.00;0.62;;;;;15.30;1.00;;;;;;2267077;61;1007;-93
2023/04/25 17:50:55;702894.00;2.34;1212.26;0.00;0.00;0.62;;;;;15.20;1.00;;;;;;2265835;61;1056;-91
2023/04/25 18:01:07;1131102.00;3.77;1966.13;94815.00;0.32;164.62;;;;;14.80;1.00;;;;;;2266068;61;1884;-93
2023/04/25 18:44:07;812252.00;2.71;1402.50;0.00;0.00;0.62;;;;;14.80;1.00;;;;;;2507632;55;3566;31
2023/04/25 19:11:54;905707.00;3.02;1566.15;10603.00;0.04;18.99;;;;;13.80;1.00;;;;;;2266877;61;952;-93
2023/04/25 19:25:30;994035.00;3.31;1721.91;5278.00;0.02;9.77;;;;;12.40;1.00;;;;;;2262677;61;1025;-92
2023/04/25 19:41:18;530310.00;1.77;914.03;0.00;0.00;0.62;;;;;12.10;1.00;;;;;;2266612;61;1929;-90
2023/04/25 19:46:20;673981.00;2.25;1162.15;0.00;0.00;0.62;;;;;12.80;1.00;;;;;;2266308;61;1340;-92
2023/04/25 19:48:47;133955.00;0.45;232.15;0.00;0.00;0.62;;;;;13.20;1.00;;;;;;2260411;61;951;-92
2023/04/25 19:51:14;504442.00;1.68;869.47;16874.00;0.06;29.86;;;;;13.30;1.00;;;;;;2260027;61;973;-92
2023/04/25 20:21:28;669395.00;2.23;1154.21;0.00;0.00;0.62;;;;;14.10;1.00;;;;;;2266231;61;1870;-93
2023/04/25 21:21:38;787490.00;2.62;1359.31;0.00;0.00;0.62;;;;;13.80;1.00;;;;;;2266078;61;1941;-92
2023/04/25 22:19:24;669327.00;2.23;1154.09;31262.00;0.10;54.77;;;;;13.30;1.00;;;;;;2508091;55;3570;31
2023/04/25 23:41:09;1182836.00;3.94;2059.22;32362.00;0.11;56.67;;;;;13.50;1.00;;;;;;2503354;55;3565;31
